createdAt,value
2019-01-25T00:00:31.230Z,27.37
2019-01-25T00:02:58.485Z,27.10
2019-01-25T00:05:26.011Z,27.70
2019-01-25T00:07:53.425Z,27.00
2019-01-25T00:10:20.679Z,30.27
2019-01-25T00:12:48.006Z,28.60
2019-01-25T00:15:15.358Z,28.77
2019-01-25T00:17:42.686Z,29.17
2019-01-25T00:20:13.152Z,29.40
2019-01-25T00:22:40.658Z,27.40
2019-01-25T00:25:08.452Z,28.90
2019-01-25T00:27:36.068Z,28.93
2019-01-25T00:30:05.217Z,27.20
2019-01-25T00:32:32.499Z,29.57
2019-01-25T00:35:00.034Z,30.13
2019-01-25T00:37:27.553Z,27.90
2019-01-25T00:39:55.056Z,28.40
2019-01-25T00:42:22.331Z,29.60
2019-01-25T00:44:49.582Z,28.30
2019-01-25T00:47:16.850Z,31.87
2019-01-25T00:49:44.265Z,27.13
2019-01-25T00:52:11.613Z,29.97
2019-01-25T00:54:39.123Z,28.40
2019-01-25T00:57:06.470Z,29.73
2019-01-25T00:59:33.722Z,29.70
2019-01-25T01:02:01.003Z,29.37
2019-01-25T01:04:28.261Z,29.63
2019-01-25T01:06:55.549Z,27.80
2019-01-25T01:09:22.801Z,30.27
2019-01-25T01:11:50.051Z,30.40
2019-01-25T01:14:17.597Z,27.97
2019-01-25T01:16:44.876Z,28.43
2019-01-25T01:19:12.136Z,28.70
2019-01-25T01:21:39.414Z,30.10
2019-01-25T01:24:06.921Z,27.63
2019-01-25T01:26:34.448Z,29.50
2019-01-25T01:29:01.725Z,28.13
2019-01-25T01:31:28.999Z,28.63
2019-01-25T01:33:56.533Z,29.20
2019-01-25T01:36:23.789Z,28.07
2019-01-25T01:38:51.322Z,29.00
2019-01-25T01:41:18.826Z,29.83
2019-01-25T01:43:46.330Z,30.27
2019-01-25T01:46:13.625Z,29.33
2019-01-25T01:48:40.862Z,28.27
2019-01-25T01:51:08.146Z,27.57
2019-01-25T01:53:35.429Z,28.70
2019-01-25T01:56:02.956Z,28.63
2019-01-25T01:58:30.210Z,29.80
2019-01-25T02:00:57.567Z,29.90
2019-01-25T02:03:24.817Z,28.20
2019-01-25T02:05:52.173Z,29.93
2019-01-25T02:08:19.428Z,30.97
2019-01-25T02:10:46.714Z,31.90
2019-01-25T02:13:14.230Z,29.93
2019-01-25T02:15:41.769Z,28.80
2019-01-25T02:18:09.097Z,29.43
2019-01-25T02:20:36.373Z,28.97
2019-01-25T02:23:03.663Z,30.20
2019-01-25T02:25:30.915Z,29.80
2019-01-25T02:27:58.261Z,30.20
2019-01-25T02:30:26.117Z,30.53
2019-01-25T02:32:53.791Z,31.70
2019-01-25T02:35:21.184Z,28.10
2019-01-25T02:37:48.587Z,27.60
2019-01-25T02:40:20.289Z,31.07
2019-01-25T02:42:47.639Z,28.03
2019-01-25T02:45:14.915Z,28.83
2019-01-25T02:47:42.238Z,29.17
2019-01-25T02:50:11.058Z,29.63
2019-01-25T02:52:38.312Z,30.80
2019-01-25T02:55:06.266Z,30.60
2019-01-25T02:57:33.509Z,28.73
2019-01-25T03:00:01.143Z,32.60
2019-01-25T03:02:28.399Z,30.10
2019-01-25T03:04:55.675Z,31.30
2019-01-25T03:07:22.950Z,29.30
2019-01-25T03:09:50.289Z,28.93
2019-01-25T03:12:17.538Z,32.37
2019-01-25T03:14:45.048Z,28.83
2019-01-25T03:17:12.334Z,28.90
2019-01-25T03:19:39.577Z,28.33
2019-01-25T03:22:07.269Z,30.27
2019-01-25T03:24:34.683Z,31.40
2019-01-25T03:27:02.010Z,31.47
2019-01-25T03:29:29.289Z,29.50
2019-01-25T03:31:56.578Z,30.93
2019-01-25T03:34:23.931Z,31.07
2019-01-25T03:36:51.438Z,29.40
2019-01-25T03:39:18.723Z,28.77
2019-01-25T03:41:45.998Z,29.70
2019-01-25T03:44:13.543Z,30.73
2019-01-25T03:46:41.066Z,27.80
2019-01-25T03:49:08.320Z,28.90
2019-01-25T03:51:35.847Z,29.87
2019-01-25T03:54:03.153Z,28.80
2019-01-25T03:56:30.718Z,29.27
2019-01-25T03:58:57.997Z,30.13
2019-01-25T04:01:25.331Z,27.13
2019-01-25T04:03:52.610Z,28.60
2019-01-25T04:06:19.954Z,29.00
2019-01-25T04:08:47.206Z,26.30
2019-01-25T04:11:14.485Z,30.97
2019-01-25T04:13:42.033Z,28.60
2019-01-25T04:16:09.553Z,28.43
2019-01-25T04:18:36.826Z,30.57
2019-01-25T04:21:04.326Z,31.50
2019-01-25T04:23:31.612Z,30.90
2019-01-25T04:25:59.061Z,28.87
2019-01-25T04:28:26.390Z,30.07
2019-01-25T04:30:53.638Z,29.97
2019-01-25T04:33:20.931Z,28.40
2019-01-25T04:35:48.439Z,31.10
2019-01-25T04:38:15.696Z,28.90
2019-01-25T04:40:42.971Z,30.27
2019-01-25T04:43:10.503Z,29.90
2019-01-25T04:45:37.782Z,28.53
2019-01-25T04:48:05.070Z,27.53
2019-01-25T04:50:32.322Z,28.60
2019-01-25T04:52:59.599Z,27.90
2019-01-25T04:55:27.817Z,28.03
2019-01-25T04:57:56.626Z,26.83
2019-01-25T05:00:24.001Z,27.33
2019-01-25T05:02:52.377Z,29.10
2019-01-25T05:05:20.058Z,27.90
2019-01-25T05:07:47.375Z,30.20
2019-01-25T05:10:14.748Z,29.77
2019-01-25T05:12:44.332Z,30.20
2019-01-25T05:15:11.796Z,26.17
2019-01-25T05:17:39.046Z,26.60
2019-01-25T05:20:07.188Z,28.47
2019-01-25T05:22:34.466Z,27.00
2019-01-25T05:25:01.715Z,28.10
2019-01-25T05:27:29.008Z,28.67
2019-01-25T05:29:56.257Z,28.73
2019-01-25T05:32:23.785Z,26.50
2019-01-25T05:34:51.053Z,28.07
2019-01-25T05:37:18.309Z,28.57
2019-01-25T05:39:45.834Z,29.10
2019-01-25T05:42:13.083Z,27.53
2019-01-25T05:44:40.365Z,28.33
2019-01-25T05:47:08.287Z,27.93
2019-01-25T05:49:35.646Z,28.33
2019-01-25T05:52:03.218Z,28.53
2019-01-25T05:54:30.771Z,27.27
2019-01-25T05:56:58.097Z,27.30
2019-01-25T05:59:25.604Z,26.37
2019-01-25T06:01:52.877Z,27.00
2019-01-25T06:04:20.150Z,27.97
2019-01-25T06:06:47.747Z,28.80
2019-01-25T06:09:18.024Z,26.67
2019-01-25T06:11:45.581Z,28.43
2019-01-25T06:14:14.134Z,27.67
2019-01-25T06:16:41.558Z,27.50
2019-01-25T06:19:08.844Z,29.00
2019-01-25T06:21:36.114Z,28.70
2019-01-25T06:24:03.461Z,27.57
2019-01-25T06:26:30.957Z,31.60
2019-01-25T06:28:58.231Z,32.20
2019-01-25T06:31:25.492Z,32.40
2019-01-25T06:33:52.743Z,29.77
2019-01-25T06:36:20.350Z,30.97
2019-01-25T06:38:47.588Z,29.40
2019-01-25T06:41:14.862Z,30.40
2019-01-25T06:43:42.150Z,32.23
2019-01-25T06:46:09.504Z,33.67
2019-01-25T06:48:36.775Z,33.80
2019-01-25T06:51:04.474Z,34.87
2019-01-25T06:53:31.722Z,33.53
2019-01-25T06:55:59.270Z,33.00
2019-01-25T06:58:31.449Z,32.00
2019-01-25T07:01:16.694Z,34.60
2019-01-25T07:03:43.984Z,36.20
2019-01-25T07:06:11.249Z,32.50
2019-01-25T07:08:38.542Z,33.90
2019-01-25T07:11:05.942Z,43.80
2019-01-25T07:13:33.189Z,33.33
2019-01-25T07:16:00.478Z,32.43
2019-01-25T07:18:27.725Z,31.77
2019-01-25T07:20:55.277Z,32.63
2019-01-25T07:23:22.785Z,30.90
2019-01-25T07:25:50.338Z,31.90
2019-01-25T07:28:17.664Z,33.27
2019-01-25T07:30:44.971Z,31.97
2019-01-25T07:33:12.282Z,34.10
2019-01-25T07:35:39.608Z,34.00
2019-01-25T07:38:06.909Z,35.83
2019-01-25T07:40:34.460Z,36.20
2019-01-25T07:43:01.710Z,32.37
2019-01-25T07:45:29.075Z,33.07
2019-01-25T07:47:56.414Z,33.10
2019-01-25T07:50:25.051Z,36.00
2019-01-25T07:52:52.532Z,37.80
2019-01-25T07:55:19.814Z,38.20
2019-01-25T07:57:47.134Z,37.67
2019-01-25T08:00:15.329Z,37.10
2019-01-25T08:02:42.614Z,35.90
2019-01-25T08:05:10.716Z,37.40
2019-01-25T08:07:38.289Z,36.97
2019-01-25T08:10:07.080Z,40.40
2019-01-25T08:12:34.625Z,37.27
2019-01-25T08:15:02.323Z,40.70
2019-01-25T08:17:29.763Z,44.10
2019-01-25T08:19:57.044Z,39.37
2019-01-25T08:22:24.324Z,38.73
2019-01-25T08:24:51.572Z,36.70
2019-01-25T08:27:19.115Z,39.23
2019-01-25T08:29:46.648Z,36.57
2019-01-25T08:32:13.915Z,38.80
2019-01-25T08:34:41.443Z,39.03
2019-01-25T08:37:08.727Z,39.40
2019-01-25T08:39:36.070Z,39.77
2019-01-25T08:42:03.462Z,42.13
2019-01-25T08:44:30.759Z,41.13
2019-01-25T08:46:58.118Z,37.63
2019-01-25T08:49:25.443Z,34.80
2019-01-25T08:51:52.787Z,36.87
2019-01-25T08:54:20.473Z,40.30
2019-01-25T08:56:47.995Z,39.63
2019-01-25T08:59:15.338Z,36.40
2019-01-25T09:01:42.908Z,38.33
2019-01-25T09:04:10.183Z,42.80
2019-01-25T09:06:37.521Z,40.90
2019-01-25T09:09:06.314Z,37.57
2019-01-25T09:11:33.601Z,38.67
2019-01-25T09:14:00.857Z,41.30
2019-01-25T09:16:28.113Z,41.57
2019-01-25T09:18:55.393Z,39.40
2019-01-25T09:21:22.725Z,38.10
2019-01-25T09:23:50.084Z,42.17
2019-01-25T09:26:17.363Z,38.63
2019-01-25T09:28:44.649Z,38.80
2019-01-25T09:31:11.973Z,39.40
2019-01-25T09:33:39.230Z,37.73
2019-01-25T09:36:06.594Z,38.77
2019-01-25T09:38:34.276Z,39.90
2019-01-25T09:41:01.643Z,39.70
2019-01-25T09:43:29.177Z,37.63
2019-01-25T09:45:56.505Z,38.50
2019-01-25T09:48:23.785Z,37.27
2019-01-25T09:50:52.829Z,40.17
2019-01-25T09:53:20.299Z,41.73
2019-01-25T09:55:47.670Z,38.77
2019-01-25T09:58:16.167Z,38.13
2019-01-25T10:00:45.090Z,39.63
2019-01-25T10:03:12.627Z,41.10
2019-01-25T10:05:39.885Z,41.87
2019-01-25T10:08:07.165Z,38.60
2019-01-25T10:10:34.421Z,42.23
2019-01-25T10:13:01.702Z,41.17
2019-01-25T10:15:29.424Z,42.30
2019-01-25T10:17:56.706Z,40.90
2019-01-25T10:20:23.993Z,42.07
2019-01-25T10:22:51.424Z,39.70
2019-01-25T10:25:18.722Z,42.10
2019-01-25T10:27:47.177Z,38.03
2019-01-25T10:30:19.049Z,40.53
2019-01-25T10:32:46.334Z,40.53
2019-01-25T10:35:13.945Z,42.50
2019-01-25T10:37:41.241Z,40.60
2019-01-25T10:40:10.354Z,39.13
2019-01-25T10:42:44.282Z,40.43
2019-01-25T10:45:08.162Z,38.10
2019-01-25T10:47:35.434Z,39.23
2019-01-25T10:50:02.692Z,38.37
2019-01-25T10:52:29.958Z,37.47
2019-01-25T10:54:57.242Z,36.27
2019-01-25T10:57:24.523Z,39.00
2019-01-25T10:59:51.805Z,37.63
2019-01-25T11:02:19.099Z,37.10
2019-01-25T11:04:46.354Z,37.93
2019-01-25T11:07:13.601Z,38.10
2019-01-25T11:09:40.874Z,38.57
2019-01-25T11:12:08.120Z,38.93
2019-01-25T11:14:35.673Z,35.20
2019-01-25T11:17:02.954Z,35.40
2019-01-25T11:19:30.209Z,33.23
2019-01-25T11:21:57.483Z,33.07
2019-01-25T11:24:24.733Z,32.80
2019-01-25T11:26:52.282Z,31.87
2019-01-25T11:29:19.781Z,32.20
2019-01-25T11:31:47.069Z,31.83
2019-01-25T11:34:14.326Z,29.97
2019-01-25T11:36:41.579Z,28.77
2019-01-25T11:39:09.209Z,28.50
2019-01-25T11:41:36.464Z,27.60
2019-01-25T11:44:03.890Z,29.10
2019-01-25T11:46:31.447Z,30.20
2019-01-25T11:48:58.784Z,27.90
2019-01-25T11:51:26.065Z,29.87
2019-01-25T11:53:53.318Z,26.40
2019-01-25T11:56:20.738Z,29.10
2019-01-25T11:58:48.020Z,28.53
2019-01-25T12:01:15.332Z,27.63
2019-01-25T12:03:42.598Z,28.43
2019-01-25T12:06:10.147Z,27.40
2019-01-25T12:08:37.665Z,27.73
2019-01-25T12:11:04.973Z,27.23
2019-01-25T12:13:32.502Z,27.60
2019-01-25T12:15:59.777Z,28.20
2019-01-25T12:18:27.043Z,26.80
2019-01-25T12:20:54.404Z,26.60
2019-01-25T12:23:21.666Z,27.27
2019-01-25T12:25:48.919Z,28.60
2019-01-25T12:28:16.198Z,26.90
2019-01-25T12:30:43.718Z,27.33
2019-01-25T12:33:10.992Z,26.57
2019-01-25T12:35:39.217Z,29.97
2019-01-25T12:38:06.499Z,25.67
2019-01-25T12:40:34.026Z,25.73
2019-01-25T12:43:01.278Z,27.50
2019-01-25T12:45:29.131Z,25.57
2019-01-25T12:47:56.645Z,25.37
2019-01-25T12:50:25.279Z,24.90
2019-01-25T12:52:52.813Z,24.60
2019-01-25T12:55:20.252Z,26.33
2019-01-25T12:57:47.803Z,26.20
2019-01-25T13:00:16.386Z,24.10
2019-01-25T13:02:43.734Z,23.17
2019-01-25T13:05:12.837Z,23.57
2019-01-25T13:07:40.118Z,23.90
2019-01-25T13:10:09.140Z,24.50
2019-01-25T13:12:36.520Z,22.60
2019-01-25T13:15:05.368Z,23.10
2019-01-25T13:17:32.701Z,22.63
2019-01-25T13:20:00.243Z,22.60
2019-01-25T13:22:27.582Z,21.57
2019-01-25T13:24:55.142Z,21.50
2019-01-25T13:27:22.446Z,22.00
2019-01-25T13:29:49.722Z,20.07
2019-01-25T13:32:17.075Z,19.90
2019-01-25T13:34:44.360Z,21.27
2019-01-25T13:37:11.685Z,20.53
2019-01-25T13:39:39.058Z,20.77
2019-01-25T13:42:06.575Z,19.70
2019-01-25T13:44:34.079Z,19.73
2019-01-25T13:47:01.354Z,18.90
2019-01-25T13:49:28.685Z,19.70
2019-01-25T13:51:56.086Z,16.40
2019-01-25T13:54:28.676Z,18.30
2019-01-25T13:56:52.903Z,18.47
2019-01-25T13:59:20.164Z,18.30
2019-01-25T14:01:47.522Z,18.90
2019-01-25T14:04:14.844Z,19.40
2019-01-25T14:06:42.134Z,18.70
2019-01-25T14:09:09.730Z,18.10
2019-01-25T14:11:37.198Z,19.03
2019-01-25T14:14:05.149Z,15.93
2019-01-25T14:16:34.389Z,17.57
2019-01-25T14:19:01.906Z,17.53
2019-01-25T14:21:29.295Z,16.00
2019-01-25T14:23:56.937Z,13.30
2019-01-25T14:26:24.505Z,15.13
2019-01-25T14:28:52.007Z,13.50
2019-01-25T14:31:19.293Z,11.33
2019-01-25T14:33:46.804Z,10.53
2019-01-25T14:36:14.095Z,11.50
2019-01-25T14:38:42.407Z,11.73
2019-01-25T14:41:09.778Z,11.40
2019-01-25T14:43:37.058Z,11.73
2019-01-25T14:46:04.578Z,10.70
2019-01-25T14:48:31.830Z,9.83
2019-01-25T14:50:59.366Z,10.30
2019-01-25T14:53:26.637Z,9.10
2019-01-25T14:55:53.919Z,9.60
2019-01-25T14:58:21.195Z,9.00
2019-01-25T15:00:48.438Z,9.40
2019-01-25T15:03:15.722Z,10.27
2019-01-25T15:05:42.973Z,9.97
2019-01-25T15:08:10.255Z,10.03
2019-01-25T15:10:37.524Z,9.30
2019-01-25T15:13:05.134Z,9.50
2019-01-25T15:15:32.483Z,9.73
2019-01-25T15:17:59.856Z,9.80
2019-01-25T15:20:27.243Z,9.17
2019-01-25T15:22:54.528Z,10.47
2019-01-25T15:25:21.846Z,9.80
2019-01-25T15:27:49.129Z,9.60
2019-01-25T15:30:20.614Z,9.00
2019-01-25T15:32:47.933Z,8.40
2019-01-25T15:35:16.082Z,9.07
2019-01-25T15:37:43.406Z,8.20
2019-01-25T15:40:12.190Z,8.30
2019-01-25T15:42:39.437Z,8.50
2019-01-25T15:45:10.654Z,7.63
2019-01-25T15:47:38.155Z,7.90
2019-01-25T15:50:07.240Z,8.23
2019-01-25T15:52:34.481Z,8.80
2019-01-25T15:55:01.759Z,7.80
2019-01-25T15:57:29.038Z,8.10
2019-01-25T15:59:56.314Z,8.07
2019-01-25T16:02:23.739Z,7.40
2019-01-25T16:04:51.066Z,7.53
2019-01-25T16:07:18.571Z,7.97
2019-01-25T16:09:45.842Z,7.50
2019-01-25T16:12:13.246Z,7.10
2019-01-25T16:14:40.625Z,6.90
2019-01-25T16:17:07.904Z,7.77
2019-01-25T16:19:35.435Z,7.60
2019-01-25T16:22:02.935Z,7.07
2019-01-25T16:24:30.461Z,7.57
2019-01-25T16:26:57.815Z,7.63
2019-01-25T16:29:25.091Z,7.67
2019-01-25T16:31:52.338Z,7.80
2019-01-25T16:34:19.838Z,8.60
2019-01-25T16:36:47.193Z,8.63
2019-01-25T16:39:14.518Z,8.13
2019-01-25T16:41:41.769Z,7.97
2019-01-25T16:44:09.041Z,8.13
2019-01-25T16:46:36.321Z,7.50
2019-01-25T16:49:03.766Z,7.60
2019-01-25T16:51:31.281Z,8.30
2019-01-25T16:53:58.558Z,8.87
2019-01-25T16:56:25.829Z,8.40
2019-01-25T16:58:53.105Z,8.70
2019-01-25T17:01:20.382Z,9.63
2019-01-25T17:03:47.638Z,7.70
2019-01-25T17:06:15.169Z,8.87
2019-01-25T17:08:42.713Z,8.57
2019-01-25T17:11:09.987Z,9.30
2019-01-25T17:13:37.270Z,9.10
2019-01-25T17:16:04.590Z,10.20
2019-01-25T17:18:31.867Z,8.40
2019-01-25T17:20:59.111Z,9.30
2019-01-25T17:23:26.398Z,10.80
2019-01-25T17:25:53.642Z,9.70
2019-01-25T17:28:20.918Z,10.80
2019-01-25T17:30:48.251Z,11.90
2019-01-25T17:33:15.526Z,11.80
2019-01-25T17:35:42.813Z,14.03
2019-01-25T17:38:10.057Z,13.30
2019-01-25T17:40:46.125Z,12.30
2019-01-25T17:43:07.982Z,12.30
2019-01-25T17:45:35.466Z,12.80
2019-01-25T17:48:02.726Z,14.10
2019-01-25T17:50:29.997Z,13.80
2019-01-25T17:52:57.324Z,14.70
2019-01-25T17:55:24.915Z,14.90
2019-01-25T17:57:52.311Z,14.03
2019-01-25T18:00:31.833Z,17.00
2019-01-25T18:02:59.353Z,14.43
2019-01-25T18:05:26.613Z,17.53
2019-01-25T18:07:54.134Z,18.30
2019-01-25T18:10:22.467Z,16.53
2019-01-25T18:12:49.984Z,17.60
2019-01-25T18:15:17.709Z,17.47
2019-01-25T18:17:44.974Z,17.30
2019-01-25T18:20:16.630Z,18.07
2019-01-25T18:22:43.984Z,18.47
2019-01-25T18:25:21.553Z,18.07
2019-01-25T18:27:50.713Z,18.70
2019-01-25T18:30:19.505Z,19.30
2019-01-25T18:32:46.822Z,20.43
2019-01-25T18:35:14.093Z,18.73
2019-01-25T18:37:41.337Z,20.37
2019-01-25T18:40:10.377Z,21.00
2019-01-25T18:42:37.911Z,22.03
2019-01-25T18:45:06.814Z,20.00
2019-01-25T18:47:34.090Z,20.83
2019-01-25T18:50:01.634Z,19.17
2019-01-25T18:52:28.881Z,21.90
2019-01-25T18:54:56.952Z,21.60
2019-01-25T18:57:24.218Z,22.43
2019-01-25T18:59:51.510Z,21.67
2019-01-25T19:02:18.758Z,19.80
2019-01-25T19:04:46.258Z,22.57
2019-01-25T19:07:13.544Z,22.80
2019-01-25T19:09:40.801Z,23.80
2019-01-25T19:12:08.289Z,21.93
2019-01-25T19:14:35.663Z,22.20
2019-01-25T19:17:02.913Z,22.23
2019-01-25T19:19:30.161Z,22.17
2019-01-25T19:21:57.701Z,21.20
2019-01-25T19:24:25.046Z,22.47
2019-01-25T19:26:52.424Z,22.27
2019-01-25T19:29:19.678Z,22.70
2019-01-25T19:31:46.926Z,22.33
2019-01-25T19:34:14.203Z,22.20
2019-01-25T19:36:41.568Z,25.00
2019-01-25T19:39:09.081Z,24.03
2019-01-25T19:41:36.424Z,20.03
2019-01-25T19:44:04.224Z,22.50
2019-01-25T19:46:31.770Z,23.40
2019-01-25T19:48:59.035Z,24.70
2019-01-25T19:51:26.568Z,22.40
2019-01-25T19:53:53.850Z,24.53
2019-01-25T19:56:21.199Z,24.23
2019-01-25T19:58:48.558Z,22.77
2019-01-25T20:01:15.821Z,20.20
2019-01-25T20:03:43.070Z,21.97
2019-01-25T20:06:10.690Z,22.40
2019-01-25T20:08:37.974Z,20.13
2019-01-25T20:11:05.523Z,21.03
2019-01-25T20:13:33.038Z,19.97
2019-01-25T20:16:00.674Z,21.00
2019-01-25T20:18:27.993Z,21.40
2019-01-25T20:21:01.313Z,21.30
2019-01-25T20:23:31.871Z,21.97
2019-01-25T20:25:59.245Z,21.03
2019-01-25T20:28:26.800Z,18.83
2019-01-25T20:30:54.318Z,19.13
2019-01-25T20:33:21.867Z,20.43
2019-01-25T20:35:49.414Z,16.33
2019-01-25T20:38:16.695Z,15.77
2019-01-25T20:40:43.977Z,15.83
2019-01-25T20:43:21.634Z,16.10
2019-01-25T20:45:49.759Z,15.60
2019-01-25T20:48:32.423Z,14.23
2019-01-25T20:51:00.138Z,16.93
2019-01-25T20:53:27.406Z,17.40
2019-01-25T20:55:54.726Z,17.77
2019-01-25T20:58:22.005Z,20.60
2019-01-25T21:00:49.574Z,18.10
2019-01-25T21:03:16.877Z,18.37
2019-01-25T21:05:44.221Z,19.70
2019-01-25T21:08:11.506Z,19.50
2019-01-25T21:10:38.827Z,18.80
2019-01-25T21:13:06.367Z,20.30
2019-01-25T21:15:35.348Z,18.73
2019-01-25T21:18:02.750Z,20.33
2019-01-25T21:20:34.045Z,21.60
2019-01-25T21:23:01.570Z,21.40
2019-01-25T21:25:28.845Z,20.00
2019-01-25T21:27:56.175Z,19.90
2019-01-25T21:30:24.886Z,21.13
2019-01-25T21:32:52.401Z,20.27
2019-01-25T21:35:19.650Z,23.80
2019-01-25T21:37:47.003Z,21.27
2019-01-25T21:40:15.799Z,21.07
2019-01-25T21:42:43.089Z,23.07
2019-01-25T21:45:11.808Z,20.70
2019-01-25T21:47:39.151Z,21.23
2019-01-25T21:50:10.658Z,20.33
2019-01-25T21:52:37.906Z,19.90
2019-01-25T21:55:06.635Z,20.80
2019-01-25T21:57:33.982Z,22.03
2019-01-25T22:00:01.239Z,22.13
2019-01-25T22:02:28.601Z,20.57
2019-01-25T22:04:55.845Z,21.73
2019-01-25T22:07:23.134Z,19.37
2019-01-25T22:09:50.390Z,17.77
2019-01-25T22:12:17.997Z,17.50
2019-01-25T22:14:45.240Z,16.60
2019-01-25T22:17:12.556Z,15.90
2019-01-25T22:19:39.854Z,16.17
2019-01-25T22:22:07.201Z,16.83
2019-01-25T22:24:34.457Z,15.90
2019-01-25T22:27:01.734Z,16.70
2019-01-25T22:29:29.273Z,16.23
2019-01-25T22:31:56.773Z,17.07
2019-01-25T22:34:24.055Z,15.83
2019-01-25T22:36:51.301Z,15.20
2019-01-25T22:39:18.602Z,14.20
2019-01-25T22:41:46.103Z,16.23
2019-01-25T22:44:13.353Z,17.60
2019-01-25T22:46:40.794Z,17.30
2019-01-25T22:49:08.052Z,15.60
2019-01-25T22:51:35.320Z,16.33
2019-01-25T22:54:02.592Z,15.40
2019-01-25T22:56:30.134Z,16.40
2019-01-25T22:58:57.685Z,16.27
2019-01-25T23:01:25.777Z,16.60
2019-01-25T23:04:00.572Z,16.13
2019-01-25T23:06:32.280Z,15.20
2019-01-25T23:09:01.594Z,15.47
2019-01-25T23:11:28.846Z,16.57
2019-01-25T23:13:56.354Z,17.70
2019-01-25T23:16:23.625Z,15.43
2019-01-25T23:18:50.879Z,16.03
2019-01-25T23:21:18.154Z,16.17
2019-01-25T23:23:45.440Z,15.83
2019-01-25T23:26:12.753Z,15.27
2019-01-25T23:28:40.000Z,14.60
2019-01-25T23:31:07.283Z,14.17
2019-01-25T23:33:34.817Z,14.70
2019-01-25T23:36:02.153Z,15.83
2019-01-25T23:38:29.498Z,15.00
2019-01-25T23:40:56.746Z,14.27
2019-01-25T23:43:24.349Z,14.10
2019-01-25T23:45:51.666Z,13.60
2019-01-25T23:48:18.977Z,14.80
2019-01-25T23:50:46.264Z,14.03
2019-01-25T23:53:13.551Z,13.30
2019-01-25T23:55:41.058Z,15.23
2019-01-25T23:58:08.329Z,12.90
